sensor_id;sensor_type;location;lat;lon;timestamp;temperature;humidity
35603;DHT22;21725;50.836;4.368;2024-02-23T00:02:49;8.00;99.90
35603;DHT22;21725;50.836;4.368;2024-02-23T00:05:50;8.00;99.90
35603;DHT22;21725;50.836;4.368;2024-02-23T00:08:50;7.80;99.90
35603;DHT22;21725;50.836;4.368;2024-02-23T00:11:54;7.80;99.90
35603;DHT22;21725;50.836;4.368;2024-02-23T00:14:54;7.90;99.90
35603;DHT22;21725;50.836;4.368;2024-02-23T00:17:55;8.00;99.90
35603;DHT22;21725;50.836;4.368;2024-02-23T00:20:56;7.90;99.90
35603;DHT22;21725;50.836;4.368;2024-02-23T00:23:57;8.00;99.90
35603;DHT22;21725;50.836;4.368;2024-02-23T00:26:57;7.90;99.90
35603;DHT22;21725;50.836;4.368;2024-02-23T00:29:58;8.10;99.90
35603;DHT22;21725;50.836;4.368;2024-02-23T00:32:59;7.80;99.90
35603;DHT22;21725;50.836;4.368;2024-02-23T00:35:59;7.60;99.90
35603;DHT22;21725;50.836;4.368;2024-02-23T00:39:00;7.60;99.90
35603;DHT22;21725;50.836;4.368;2024-02-23T00:42:01;7.70;99.90
35603;DHT22;21725;50.836;4.368;2024-02-23T00:45:02;7.80;99.90
35603;DHT22;21725;50.836;4.368;2024-02-23T00:48:03;7.80;99.90
35603;DHT22;21725;50.836;4.368;2024-02-23T00:51:04;7.60;99.90
35603;DHT22;21725;50.836;4.368;2024-02-23T00:54:05;7.70;99.90
35603;DHT22;21725;50.836;4.368;2024-02-23T00:57:06;7.70;99.90
35603;DHT22;21725;50.836;4.368;2024-02-23T01:00:08;7.80;99.90
35603;DHT22;21725;50.836;4.368;2024-02-23T01:03:09;7.80;99.90
35603;DHT22;21725;50.836;4.368;2024-02-23T01:06:10;8.10;99.90
35603;DHT22;21725;50.836;4.368;2024-02-23T01:09:11;8.10;99.90
35603;DHT22;21725;50.836;4.368;2024-02-23T01:12:11;8.30;99.90
35603;DHT22;21725;50.836;4.368;2024-02-23T01:15:12;8.20;99.90
35603;DHT22;21725;50.836;4.368;2024-02-23T01:18:13;8.00;99.90
35603;DHT22;21725;50.836;4.368;2024-02-23T01:21:14;8.10;99.90
35603;DHT22;21725;50.836;4.368;2024-02-23T01:24:15;8.00;99.90
35603;DHT22;21725;50.836;4.368;2024-02-23T01:27:16;7.90;99.90
35603;DHT22;21725;50.836;4.368;2024-02-23T01:30:17;6.80;99.90
35603;DHT22;21725;50.836;4.368;2024-02-23T01:33:19;8.00;99.90
35603;DHT22;21725;50.836;4.368;2024-02-23T01:36:20;8.00;99.90
35603;DHT22;21725;50.836;4.368;2024-02-23T01:39:20;8.00;99.90
35603;DHT22;21725;50.836;4.368;2024-02-23T01:42:21;7.90;99.90
35603;DHT22;21725;50.836;4.368;2024-02-23T01:45:24;7.90;99.90
35603;DHT22;21725;50.836;4.368;2024-02-23T01:48:25;7.80;99.90
35603;DHT22;21725;50.836;4.368;2024-02-23T01:51:26;7.70;99.90
35603;DHT22;21725;50.836;4.368;2024-02-23T01:54:27;7.90;99.90
35603;DHT22;21725;50.836;4.368;2024-02-23T01:57:29;7.90;99.90
35603;DHT22;21725;50.836;4.368;2024-02-23T02:00:30;7.90;99.90
35603;DHT22;21725;50.836;4.368;2024-02-23T02:03:33;7.70;99.90
35603;DHT22;21725;50.836;4.368;2024-02-23T02:06:33;7.70;99.90
35603;DHT22;21725;50.836;4.368;2024-02-23T02:09:34;7.80;99.90
35603;DHT22;21725;50.836;4.368;2024-02-23T02:12:35;7.90;99.90
35603;DHT22;21725;50.836;4.368;2024-02-23T02:15:36;8.20;99.90
35603;DHT22;21725;50.836;4.368;2024-02-23T02:18:37;8.10;99.90
35603;DHT22;21725;50.836;4.368;2024-02-23T02:21:38;8.20;99.90
35603;DHT22;21725;50.836;4.368;2024-02-23T02:24:39;8.20;99.90
35603;DHT22;21725;50.836;4.368;2024-02-23T02:27:43;8.20;99.90
35603;DHT22;21725;50.836;4.368;2024-02-23T02:30:45;8.30;99.90
35603;DHT22;21725;50.836;4.368;2024-02-23T02:33:50;8.20;99.90
35603;DHT22;21725;50.836;4.368;2024-02-23T02:36:50;8.10;99.90
35603;DHT22;21725;50.836;4.368;2024-02-23T02:39:51;8.10;99.90
35603;DHT22;21725;50.836;4.368;2024-02-23T02:42:52;8.20;99.90
35603;DHT22;21725;50.836;4.368;2024-02-23T02:45:53;8.20;99.90
35603;DHT22;21725;50.836;4.368;2024-02-23T02:48:54;8.20;99.90
35603;DHT22;21725;50.836;4.368;2024-02-23T02:51:54;8.00;99.90
35603;DHT22;21725;50.836;4.368;2024-02-23T02:54:55;8.10;99.90
35603;DHT22;21725;50.836;4.368;2024-02-23T02:57:56;8.20;99.90
35603;DHT22;21725;50.836;4.368;2024-02-23T03:00:56;8.50;99.90
35603;DHT22;21725;50.836;4.368;2024-02-23T03:03:57;8.20;99.90
35603;DHT22;21725;50.836;4.368;2024-02-23T03:06:58;8.40;99.90
35603;DHT22;21725;50.836;4.368;2024-02-23T03:09:58;8.30;99.90
35603;DHT22;21725;50.836;4.368;2024-02-23T03:12:59;8.20;99.90
35603;DHT22;21725;50.836;4.368;2024-02-23T03:16:00;8.00;99.90
35603;DHT22;21725;50.836;4.368;2024-02-23T03:19:00;8.00;99.90
35603;DHT22;21725;50.836;4.368;2024-02-23T03:22:01;8.00;99.90
35603;DHT22;21725;50.836;4.368;2024-02-23T03:25:03;7.90;99.90
35603;DHT22;21725;50.836;4.368;2024-02-23T03:28:13;8.00;99.90
35603;DHT22;21725;50.836;4.368;2024-02-23T03:31:14;8.20;99.90
35603;DHT22;21725;50.836;4.368;2024-02-23T03:34:14;8.20;99.90
35603;DHT22;21725;50.836;4.368;2024-02-23T03:37:15;7.80;99.90
35603;DHT22;21725;50.836;4.368;2024-02-23T03:40:16;7.90;99.90
35603;DHT22;21725;50.836;4.368;2024-02-23T03:43:18;8.10;99.90
35603;DHT22;21725;50.836;4.368;2024-02-23T03:46:19;8.40;99.90
35603;DHT22;21725;50.836;4.368;2024-02-23T03:49:20;8.40;99.90
35603;DHT22;21725;50.836;4.368;2024-02-23T03:52:21;8.30;99.90
35603;DHT22;21725;50.836;4.368;2024-02-23T03:55:22;8.40;99.90
35603;DHT22;21725;50.836;4.368;2024-02-23T03:58:23;8.40;99.90
35603;DHT22;21725;50.836;4.368;2024-02-23T04:01:23;8.50;99.90
35603;DHT22;21725;50.836;4.368;2024-02-23T04:04:24;8.30;99.90
35603;DHT22;21725;50.836;4.368;2024-02-23T04:07:25;8.50;99.90
35603;DHT22;21725;50.836;4.368;2024-02-23T04:10:26;8.40;99.90
35603;DHT22;21725;50.836;4.368;2024-02-23T04:13:26;8.40;99.90
35603;DHT22;21725;50.836;4.368;2024-02-23T04:16:27;8.40;99.90
35603;DHT22;21725;50.836;4.368;2024-02-23T04:19:28;8.50;99.90
35603;DHT22;21725;50.836;4.368;2024-02-23T04:22:29;8.70;99.90
35603;DHT22;21725;50.836;4.368;2024-02-23T04:25:29;8.80;99.90
35603;DHT22;21725;50.836;4.368;2024-02-23T04:28:30;8.70;99.90
35603;DHT22;21725;50.836;4.368;2024-02-23T04:31:32;8.70;99.90
35603;DHT22;21725;50.836;4.368;2024-02-23T04:34:32;8.50;99.90
35603;DHT22;21725;50.836;4.368;2024-02-23T04:37:33;8.20;99.90
35603;DHT22;21725;50.836;4.368;2024-02-23T04:40:34;8.00;99.90
35603;DHT22;21725;50.836;4.368;2024-02-23T04:43:34;8.20;99.90
35603;DHT22;21725;50.836;4.368;2024-02-23T04:46:35;8.10;99.90
35603;DHT22;21725;50.836;4.368;2024-02-23T04:49:36;8.40;99.90
35603;DHT22;21725;50.836;4.368;2024-02-23T04:52:36;8.40;99.90
35603;DHT22;21725;50.836;4.368;2024-02-23T04:55:37;8.70;99.90
35603;DHT22;21725;50.836;4.368;2024-02-23T04:58:38;6.60;99.90
35603;DHT22;21725;50.836;4.368;2024-02-23T05:01:39;8.30;99.90
35603;DHT22;21725;50.836;4.368;2024-02-23T05:04:40;8.30;99.90
35603;DHT22;21725;50.836;4.368;2024-02-23T05:07:41;8.60;99.90
35603;DHT22;21725;50.836;4.368;2024-02-23T05:10:41;8.50;99.90
35603;DHT22;21725;50.836;4.368;2024-02-23T05:13:42;8.70;99.90
35603;DHT22;21725;50.836;4.368;2024-02-23T05:16:43;8.90;99.90
35603;DHT22;21725;50.836;4.368;2024-02-23T05:19:44;8.80;99.90
35603;DHT22;21725;50.836;4.368;2024-02-23T05:22:47;11.60;99.90
35603;DHT22;21725;50.836;4.368;2024-02-23T05:25:47;8.50;99.90
35603;DHT22;21725;50.836;4.368;2024-02-23T05:28:48;8.50;99.90
35603;DHT22;21725;50.836;4.368;2024-02-23T05:31:51;8.50;99.90
35603;DHT22;21725;50.836;4.368;2024-02-23T05:34:52;8.90;99.90
35603;DHT22;21725;50.836;4.368;2024-02-23T05:37:54;8.60;99.90
35603;DHT22;21725;50.836;4.368;2024-02-23T05:40:55;8.70;99.90
35603;DHT22;21725;50.836;4.368;2024-02-23T05:43:56;8.50;99.90
35603;DHT22;21725;50.836;4.368;2024-02-23T05:46:57;8.60;99.90
35603;DHT22;21725;50.836;4.368;2024-02-23T05:49:57;8.40;99.90
35603;DHT22;21725;50.836;4.368;2024-02-23T05:52:58;8.20;99.90
35603;DHT22;21725;50.836;4.368;2024-02-23T05:55:59;8.10;99.90
35603;DHT22;21725;50.836;4.368;2024-02-23T05:59:00;8.50;99.90
35603;DHT22;21725;50.836;4.368;2024-02-23T06:02:00;8.60;99.90
35603;DHT22;21725;50.836;4.368;2024-02-23T06:05:01;8.50;99.90
35603;DHT22;21725;50.836;4.368;2024-02-23T06:08:02;8.60;99.90
35603;DHT22;21725;50.836;4.368;2024-02-23T06:11:03;8.30;99.90
35603;DHT22;21725;50.836;4.368;2024-02-23T06:14:04;8.40;99.90
35603;DHT22;21725;50.836;4.368;2024-02-23T06:17:05;8.30;99.90
35603;DHT22;21725;50.836;4.368;2024-02-23T06:20:07;8.20;99.90
35603;DHT22;21725;50.836;4.368;2024-02-23T06:23:08;8.40;99.90
35603;DHT22;21725;50.836;4.368;2024-02-23T06:26:09;8.40;99.90
35603;DHT22;21725;50.836;4.368;2024-02-23T06:29:10;8.30;99.90
35603;DHT22;21725;50.836;4.368;2024-02-23T06:32:13;8.50;99.90
35603;DHT22;21725;50.836;4.368;2024-02-23T06:35:14;8.30;99.90
35603;DHT22;21725;50.836;4.368;2024-02-23T06:38:15;8.30;99.90
35603;DHT22;21725;50.836;4.368;2024-02-23T06:41:15;8.50;99.90
35603;DHT22;21725;50.836;4.368;2024-02-23T06:44:17;8.50;99.90
35603;DHT22;21725;50.836;4.368;2024-02-23T06:47:18;8.70;99.90
35603;DHT22;21725;50.836;4.368;2024-02-23T06:50:19;8.70;99.90
35603;DHT22;21725;50.836;4.368;2024-02-23T06:53:20;8.60;99.90
35603;DHT22;21725;50.836;4.368;2024-02-23T06:56:21;8.50;99.90
35603;DHT22;21725;50.836;4.368;2024-02-23T06:59:21;8.90;99.90
35603;DHT22;21725;50.836;4.368;2024-02-23T07:02:24;8.90;99.90
35603;DHT22;21725;50.836;4.368;2024-02-23T07:05:25;8.70;99.90
35603;DHT22;21725;50.836;4.368;2024-02-23T07:08:26;8.70;99.90
35603;DHT22;21725;50.836;4.368;2024-02-23T07:11:26;8.80;99.90
35603;DHT22;21725;50.836;4.368;2024-02-23T07:14:27;8.80;99.90
35603;DHT22;21725;50.836;4.368;2024-02-23T07:17:28;8.50;99.90
35603;DHT22;21725;50.836;4.368;2024-02-23T07:20:28;8.70;99.90
35603;DHT22;21725;50.836;4.368;2024-02-23T07:23:29;8.60;99.90
35603;DHT22;21725;50.836;4.368;2024-02-23T07:26:30;8.70;99.90
35603;DHT22;21725;50.836;4.368;2024-02-23T07:29:31;8.80;99.90
35603;DHT22;21725;50.836;4.368;2024-02-23T07:32:31;8.80;99.90
35603;DHT22;21725;50.836;4.368;2024-02-23T07:35:32;8.70;99.90
35603;DHT22;21725;50.836;4.368;2024-02-23T07:38:33;8.70;99.90
35603;DHT22;21725;50.836;4.368;2024-02-23T07:41:34;8.90;99.90
35603;DHT22;21725;50.836;4.368;2024-02-23T07:44:34;9.00;99.90
35603;DHT22;21725;50.836;4.368;2024-02-23T07:47:35;9.40;99.90
35603;DHT22;21725;50.836;4.368;2024-02-23T07:50:36;9.20;99.90
35603;DHT22;21725;50.836;4.368;2024-02-23T07:53:37;9.20;99.90
35603;DHT22;21725;50.836;4.368;2024-02-23T07:56:37;9.10;99.90
35603;DHT22;21725;50.836;4.368;2024-02-23T07:59:38;9.30;99.90
35603;DHT22;21725;50.836;4.368;2024-02-23T08:02:39;9.50;99.90
35603;DHT22;21725;50.836;4.368;2024-02-23T08:05:40;9.40;99.90
35603;DHT22;21725;50.836;4.368;2024-02-23T08:08:41;9.10;99.90
35603;DHT22;21725;50.836;4.368;2024-02-23T08:11:41;8.80;99.90
35603;DHT22;21725;50.836;4.368;2024-02-23T08:14:42;8.90;99.90
35603;DHT22;21725;50.836;4.368;2024-02-23T08:17:47;8.80;99.90
35603;DHT22;21725;50.836;4.368;2024-02-23T08:20:48;9.10;99.90
35603;DHT22;21725;50.836;4.368;2024-02-23T08:23:49;8.90;99.90
35603;DHT22;21725;50.836;4.368;2024-02-23T08:26:50;9.00;99.90
35603;DHT22;21725;50.836;4.368;2024-02-23T08:29:51;8.90;99.90
35603;DHT22;21725;50.836;4.368;2024-02-23T08:32:51;8.90;99.90
35603;DHT22;21725;50.836;4.368;2024-02-23T08:35:52;8.80;99.90
35603;DHT22;21725;50.836;4.368;2024-02-23T08:38:53;8.80;99.90
35603;DHT22;21725;50.836;4.368;2024-02-23T08:41:54;8.50;99.90
35603;DHT22;21725;50.836;4.368;2024-02-23T08:44:55;8.50;99.90
35603;DHT22;21725;50.836;4.368;2024-02-23T08:47:56;8.50;99.90
35603;DHT22;21725;50.836;4.368;2024-02-23T08:50:56;8.30;99.90
35603;DHT22;21725;50.836;4.368;2024-02-23T08:53:57;8.50;99.90
35603;DHT22;21725;50.836;4.368;2024-02-23T08:57:03;8.60;99.90
35603;DHT22;21725;50.836;4.368;2024-02-23T09:00:05;8.60;99.90
35603;DHT22;21725;50.836;4.368;2024-02-23T09:03:06;8.40;99.90
35603;DHT22;21725;50.836;4.368;2024-02-23T09:06:07;8.50;99.90
35603;DHT22;21725;50.836;4.368;2024-02-23T09:09:07;8.70;99.90
35603;DHT22;21725;50.836;4.368;2024-02-23T09:12:09;8.60;99.90
35603;DHT22;21725;50.836;4.368;2024-02-23T09:15:11;8.60;99.90
35603;DHT22;21725;50.836;4.368;2024-02-23T09:18:11;8.70;99.90
35603;DHT22;21725;50.836;4.368;2024-02-23T09:21:12;8.80;99.90
35603;DHT22;21725;50.836;4.368;2024-02-23T09:24:13;9.10;99.90
35603;DHT22;21725;50.836;4.368;2024-02-23T09:27:14;9.10;99.90
35603;DHT22;21725;50.836;4.368;2024-02-23T09:30:15;8.90;99.90
35603;DHT22;21725;50.836;4.368;2024-02-23T09:33:16;9.00;99.90
35603;DHT22;21725;50.836;4.368;2024-02-23T09:36:18;9.20;99.90
35603;DHT22;21725;50.836;4.368;2024-02-23T09:39:18;9.30;99.90
35603;DHT22;21725;50.836;4.368;2024-02-23T09:42:22;9.30;99.90
35603;DHT22;21725;50.836;4.368;2024-02-23T09:45:26;9.40;99.90
35603;DHT22;21725;50.836;4.368;2024-02-23T09:48:28;9.30;99.90
35603;DHT22;21725;50.836;4.368;2024-02-23T09:51:29;9.50;99.90
35603;DHT22;21725;50.836;4.368;2024-02-23T09:54:32;9.50;99.90
35603;DHT22;21725;50.836;4.368;2024-02-23T09:57:33;9.20;99.90
35603;DHT22;21725;50.836;4.368;2024-02-23T10:00:37;9.20;99.90
35603;DHT22;21725;50.836;4.368;2024-02-23T10:03:39;9.50;99.90
35603;DHT22;21725;50.836;4.368;2024-02-23T10:06:40;9.50;99.90
35603;DHT22;21725;50.836;4.368;2024-02-23T10:09:40;9.20;99.90
35603;DHT22;21725;50.836;4.368;2024-02-23T10:12:41;9.30;99.90
35603;DHT22;21725;50.836;4.368;2024-02-23T10:15:43;9.30;99.90
35603;DHT22;21725;50.836;4.368;2024-02-23T10:18:47;9.70;99.90
35603;DHT22;21725;50.836;4.368;2024-02-23T10:21:52;10.00;99.90
35603;DHT22;21725;50.836;4.368;2024-02-23T10:24:53;10.30;99.90
35603;DHT22;21725;50.836;4.368;2024-02-23T10:27:54;10.40;99.90
35603;DHT22;21725;50.836;4.368;2024-02-23T10:30:55;10.20;99.90
35603;DHT22;21725;50.836;4.368;2024-02-23T10:33:58;10.40;99.90
35603;DHT22;21725;50.836;4.368;2024-02-23T10:36:59;10.30;99.90
35603;DHT22;21725;50.836;4.368;2024-02-23T10:40:00;9.90;99.90
35603;DHT22;21725;50.836;4.368;2024-02-23T10:43:03;9.80;99.90
35603;DHT22;21725;50.836;4.368;2024-02-23T10:46:06;10.00;99.90
35603;DHT22;21725;50.836;4.368;2024-02-23T10:49:10;9.80;99.90
35603;DHT22;21725;50.836;4.368;2024-02-23T10:52:12;9.90;99.90
35603;DHT22;21725;50.836;4.368;2024-02-23T10:55:15;10.00;99.90
35603;DHT22;21725;50.836;4.368;2024-02-23T10:58:20;10.10;99.90
35603;DHT22;21725;50.836;4.368;2024-02-23T11:01:21;10.10;99.90
35603;DHT22;21725;50.836;4.368;2024-02-23T11:04:23;10.30;99.90
35603;DHT22;21725;50.836;4.368;2024-02-23T11:07:25;10.00;99.90
35603;DHT22;21725;50.836;4.368;2024-02-23T11:10:28;9.80;99.90
35603;DHT22;21725;50.836;4.368;2024-02-23T11:13:35;10.00;99.90
35603;DHT22;21725;50.836;4.368;2024-02-23T11:16:39;10.00;99.90
35603;DHT22;21725;50.836;4.368;2024-02-23T11:19:46;10.10;99.90
35603;DHT22;21725;50.836;4.368;2024-02-23T11:22:54;10.20;99.90
35603;DHT22;21725;50.836;4.368;2024-02-23T11:26:05;10.30;99.90
35603;DHT22;21725;50.836;4.368;2024-02-23T11:29:12;10.40;99.90
35603;DHT22;21725;50.836;4.368;2024-02-23T11:32:18;10.60;99.90
35603;DHT22;21725;50.836;4.368;2024-02-23T11:35:18;10.50;99.90
35603;DHT22;21725;50.836;4.368;2024-02-23T11:38:21;10.70;99.90
35603;DHT22;21725;50.836;4.368;2024-02-23T11:41:22;10.90;99.90
35603;DHT22;21725;50.836;4.368;2024-02-23T11:44:25;10.70;99.90
35603;DHT22;21725;50.836;4.368;2024-02-23T11:47:26;11.00;99.90
35603;DHT22;21725;50.836;4.368;2024-02-23T11:50:27;11.00;99.90
35603;DHT22;21725;50.836;4.368;2024-02-23T11:53:28;11.00;99.90
35603;DHT22;21725;50.836;4.368;2024-02-23T11:56:30;8.10;99.90
35603;DHT22;21725;50.836;4.368;2024-02-23T11:59:32;10.60;99.90
35603;DHT22;21725;50.836;4.368;2024-02-23T12:02:34;10.40;99.90
35603;DHT22;21725;50.836;4.368;2024-02-23T12:05:35;10.70;99.90
35603;DHT22;21725;50.836;4.368;2024-02-23T12:08:36;11.20;99.90
35603;DHT22;21725;50.836;4.368;2024-02-23T12:11:40;12.40;99.90
35603;DHT22;21725;50.836;4.368;2024-02-23T12:14:42;11.30;99.90
35603;DHT22;21725;50.836;4.368;2024-02-23T12:17:49;11.20;99.90
35603;DHT22;21725;50.836;4.368;2024-02-23T12:20:50;11.20;99.90
35603;DHT22;21725;50.836;4.368;2024-02-23T12:23:51;11.20;99.90
35603;DHT22;21725;50.836;4.368;2024-02-23T12:26:54;11.10;99.90
35603;DHT22;21725;50.836;4.368;2024-02-23T12:29:55;11.00;99.90
35603;DHT22;21725;50.836;4.368;2024-02-23T12:33:06;11.30;99.90
35603;DHT22;21725;50.836;4.368;2024-02-23T12:36:11;11.20;99.90
35603;DHT22;21725;50.836;4.368;2024-02-23T12:39:12;10.20;99.90
35603;DHT22;21725;50.836;4.368;2024-02-23T12:42:12;10.80;99.90
35603;DHT22;21725;50.836;4.368;2024-02-23T12:45:13;10.90;99.90
35603;DHT22;21725;50.836;4.368;2024-02-23T12:48:17;11.10;99.90
35603;DHT22;21725;50.836;4.368;2024-02-23T12:51:18;11.00;99.90
35603;DHT22;21725;50.836;4.368;2024-02-23T12:54:19;11.30;99.90
35603;DHT22;21725;50.836;4.368;2024-02-23T12:57:19;11.20;99.90
35603;DHT22;21725;50.836;4.368;2024-02-23T13:00:20;11.20;99.90
35603;DHT22;21725;50.836;4.368;2024-02-23T13:03:21;11.20;99.90
35603;DHT22;21725;50.836;4.368;2024-02-23T13:06:22;11.20;99.90
35603;DHT22;21725;50.836;4.368;2024-02-23T13:09:22;11.30;99.90
35603;DHT22;21725;50.836;4.368;2024-02-23T13:12:23;11.20;99.90
35603;DHT22;21725;50.836;4.368;2024-02-23T13:15:24;11.00;99.90
35603;DHT22;21725;50.836;4.368;2024-02-23T13:18:25;11.30;99.90
35603;DHT22;21725;50.836;4.368;2024-02-23T13:21:26;10.80;99.90
35603;DHT22;21725;50.836;4.368;2024-02-23T13:24:27;11.20;99.90
35603;DHT22;21725;50.836;4.368;2024-02-23T13:27:28;11.50;99.90
35603;DHT22;21725;50.836;4.368;2024-02-23T13:30:30;11.50;99.90
35603;DHT22;21725;50.836;4.368;2024-02-23T13:33:31;11.30;99.90
35603;DHT22;21725;50.836;4.368;2024-02-23T13:36:31;11.20;99.90
35603;DHT22;21725;50.836;4.368;2024-02-23T13:39:32;11.30;99.90
35603;DHT22;21725;50.836;4.368;2024-02-23T13:42:37;11.30;99.90
35603;DHT22;21725;50.836;4.368;2024-02-23T13:45:51;10.80;99.90
35603;DHT22;21725;50.836;4.368;2024-02-23T13:49:03;11.00;99.90
35603;DHT22;21725;50.836;4.368;2024-02-23T13:52:05;11.10;99.90
35603;DHT22;21725;50.836;4.368;2024-02-23T13:55:05;11.10;99.90
35603;DHT22;21725;50.836;4.368;2024-02-23T13:58:06;11.00;99.90
35603;DHT22;21725;50.836;4.368;2024-02-23T14:01:07;11.20;99.90
35603;DHT22;21725;50.836;4.368;2024-02-23T14:04:08;11.30;99.90
35603;DHT22;21725;50.836;4.368;2024-02-23T14:07:08;11.50;99.90
35603;DHT22;21725;50.836;4.368;2024-02-23T14:10:10;10.60;99.90
35603;DHT22;21725;50.836;4.368;2024-02-23T14:13:11;11.70;99.90
35603;DHT22;21725;50.836;4.368;2024-02-23T14:16:11;11.70;99.90
35603;DHT22;21725;50.836;4.368;2024-02-23T14:19:12;11.70;99.90
35603;DHT22;21725;50.836;4.368;2024-02-23T14:22:13;11.90;99.90
35603;DHT22;21725;50.836;4.368;2024-02-23T14:25:14;11.90;99.90
35603;DHT22;21725;50.836;4.368;2024-02-23T14:28:14;11.90;99.90
35603;DHT22;21725;50.836;4.368;2024-02-23T14:31:15;11.90;99.90
35603;DHT22;21725;50.836;4.368;2024-02-23T14:34:18;11.80;99.90
35603;DHT22;21725;50.836;4.368;2024-02-23T14:37:21;11.60;99.90
35603;DHT22;21725;50.836;4.368;2024-02-23T14:40:22;11.40;99.90
35603;DHT22;21725;50.836;4.368;2024-02-23T14:43:23;11.60;99.90
35603;DHT22;21725;50.836;4.368;2024-02-23T14:46:24;11.70;99.90
35603;DHT22;21725;50.836;4.368;2024-02-23T14:49:24;11.50;99.90
35603;DHT22;21725;50.836;4.368;2024-02-23T14:52:25;11.60;99.90
35603;DHT22;21725;50.836;4.368;2024-02-23T14:55:26;11.80;99.90
35603;DHT22;21725;50.836;4.368;2024-02-23T14:58:27;11.90;99.90
35603;DHT22;21725;50.836;4.368;2024-02-23T15:01:27;11.90;99.90
35603;DHT22;21725;50.836;4.368;2024-02-23T15:04:28;11.80;99.90
35603;DHT22;21725;50.836;4.368;2024-02-23T15:07:29;11.80;99.90
35603;DHT22;21725;50.836;4.368;2024-02-23T15:10:30;11.40;99.90
35603;DHT22;21725;50.836;4.368;2024-02-23T15:13:30;11.50;99.90
35603;DHT22;21725;50.836;4.368;2024-02-23T15:16:31;11.70;99.90
35603;DHT22;21725;50.836;4.368;2024-02-23T15:19:32;11.80;99.90
35603;DHT22;21725;50.836;4.368;2024-02-23T15:22:32;11.90;99.90
35603;DHT22;21725;50.836;4.368;2024-02-23T15:25:33;11.70;99.90
35603;DHT22;21725;50.836;4.368;2024-02-23T15:28:35;11.70;99.90
35603;DHT22;21725;50.836;4.368;2024-02-23T15:31:36;11.50;99.90
35603;DHT22;21725;50.836;4.368;2024-02-23T15:34:37;12.00;99.90
35603;DHT22;21725;50.836;4.368;2024-02-23T15:37:38;12.00;99.90
35603;DHT22;21725;50.836;4.368;2024-02-23T15:40:39;10.40;99.90
35603;DHT22;21725;50.836;4.368;2024-02-23T15:43:40;11.90;99.90
35603;DHT22;21725;50.836;4.368;2024-02-23T15:46:41;11.90;99.90
35603;DHT22;21725;50.836;4.368;2024-02-23T15:49:42;11.90;99.90
35603;DHT22;21725;50.836;4.368;2024-02-23T15:52:42;12.00;99.90
35603;DHT22;21725;50.836;4.368;2024-02-23T15:55:43;11.80;99.90
35603;DHT22;21725;50.836;4.368;2024-02-23T15:58:46;11.70;99.90
35603;DHT22;21725;50.836;4.368;2024-02-23T16:01:50;10.00;99.90
35603;DHT22;21725;50.836;4.368;2024-02-23T16:04:51;11.80;99.90
35603;DHT22;21725;50.836;4.368;2024-02-23T16:07:52;11.90;99.90
35603;DHT22;21725;50.836;4.368;2024-02-23T16:10:52;12.10;99.90
35603;DHT22;21725;50.836;4.368;2024-02-23T16:13:53;12.00;99.90
35603;DHT22;21725;50.836;4.368;2024-02-23T16:16:54;12.20;99.90
35603;DHT22;21725;50.836;4.368;2024-02-23T16:19:55;12.20;99.90
35603;DHT22;21725;50.836;4.368;2024-02-23T16:22:55;12.00;99.90
35603;DHT22;21725;50.836;4.368;2024-02-23T16:25:56;11.90;99.90
35603;DHT22;21725;50.836;4.368;2024-02-23T16:28:57;11.90;99.90
35603;DHT22;21725;50.836;4.368;2024-02-23T16:31:58;11.70;99.90
35603;DHT22;21725;50.836;4.368;2024-02-23T16:34:59;11.40;99.90
35603;DHT22;21725;50.836;4.368;2024-02-23T16:37:59;11.40;99.90
35603;DHT22;21725;50.836;4.368;2024-02-23T16:41:00;11.30;99.90
35603;DHT22;21725;50.836;4.368;2024-02-23T16:44:01;11.30;99.90
35603;DHT22;21725;50.836;4.368;2024-02-23T16:47:02;11.20;99.90
35603;DHT22;21725;50.836;4.368;2024-02-23T16:50:03;11.10;99.90
35603;DHT22;21725;50.836;4.368;2024-02-23T16:53:04;11.20;99.90
35603;DHT22;21725;50.836;4.368;2024-02-23T16:56:05;11.10;99.90
35603;DHT22;21725;50.836;4.368;2024-02-23T16:59:06;11.30;99.90
35603;DHT22;21725;50.836;4.368;2024-02-23T17:02:07;11.20;99.90
35603;DHT22;21725;50.836;4.368;2024-02-23T17:05:07;11.10;99.90
35603;DHT22;21725;50.836;4.368;2024-02-23T17:08:08;10.80;99.90
35603;DHT22;21725;50.836;4.368;2024-02-23T17:11:09;10.70;99.90
35603;DHT22;21725;50.836;4.368;2024-02-23T17:14:10;10.80;99.90
35603;DHT22;21725;50.836;4.368;2024-02-23T17:17:11;11.00;99.90
35603;DHT22;21725;50.836;4.368;2024-02-23T17:20:11;10.90;99.90
35603;DHT22;21725;50.836;4.368;2024-02-23T17:23:12;10.70;99.90
35603;DHT22;21725;50.836;4.368;2024-02-23T17:26:13;10.60;99.90
35603;DHT22;21725;50.836;4.368;2024-02-23T17:29:14;10.70;99.90
35603;DHT22;21725;50.836;4.368;2024-02-23T17:32:15;11.10;99.90
35603;DHT22;21725;50.836;4.368;2024-02-23T17:35:15;10.90;99.90
35603;DHT22;21725;50.836;4.368;2024-02-23T17:38:17;10.90;99.90
35603;DHT22;21725;50.836;4.368;2024-02-23T17:41:17;10.90;99.90
35603;DHT22;21725;50.836;4.368;2024-02-23T17:44:19;11.10;99.90
35603;DHT22;21725;50.836;4.368;2024-02-23T17:47:20;11.30;99.90
35603;DHT22;21725;50.836;4.368;2024-02-23T17:50:21;11.30;99.90
35603;DHT22;21725;50.836;4.368;2024-02-23T17:53:21;11.30;99.90
35603;DHT22;21725;50.836;4.368;2024-02-23T17:56:22;10.90;99.90
35603;DHT22;21725;50.836;4.368;2024-02-23T17:59:23;11.00;99.90
35603;DHT22;21725;50.836;4.368;2024-02-23T18:02:24;10.90;99.90
35603;DHT22;21725;50.836;4.368;2024-02-23T18:05:24;10.70;99.90
35603;DHT22;21725;50.836;4.368;2024-02-23T18:08:25;10.80;99.90
35603;DHT22;21725;50.836;4.368;2024-02-23T18:11:26;10.70;99.90
35603;DHT22;21725;50.836;4.368;2024-02-23T18:14:27;10.30;99.90
35603;DHT22;21725;50.836;4.368;2024-02-23T18:17:29;10.20;99.90
35603;DHT22;21725;50.836;4.368;2024-02-23T18:20:30;10.00;99.90
35603;DHT22;21725;50.836;4.368;2024-02-23T18:23:31;9.90;99.90
35603;DHT22;21725;50.836;4.368;2024-02-23T18:26:32;10.10;99.90
35603;DHT22;21725;50.836;4.368;2024-02-23T18:29:33;10.20;99.90
35603;DHT22;21725;50.836;4.368;2024-02-23T18:32:36;10.20;99.90
35603;DHT22;21725;50.836;4.368;2024-02-23T18:35:38;10.30;99.90
35603;DHT22;21725;50.836;4.368;2024-02-23T18:38:40;10.20;99.90
35603;DHT22;21725;50.836;4.368;2024-02-23T18:41:41;10.10;99.90
35603;DHT22;21725;50.836;4.368;2024-02-23T18:44:41;10.10;99.90
35603;DHT22;21725;50.836;4.368;2024-02-23T18:47:42;9.20;99.90
35603;DHT22;21725;50.836;4.368;2024-02-23T18:50:43;8.60;99.90
35603;DHT22;21725;50.836;4.368;2024-02-23T18:53:43;8.20;99.90
35603;DHT22;21725;50.836;4.368;2024-02-23T18:56:50;8.30;99.90
35603;DHT22;21725;50.836;4.368;2024-02-23T18:59:53;8.30;99.90
35603;DHT22;21725;50.836;4.368;2024-02-23T19:02:54;8.60;99.90
35603;DHT22;21725;50.836;4.368;2024-02-23T19:05:54;8.70;99.90
35603;DHT22;21725;50.836;4.368;2024-02-23T19:08:55;8.90;99.90
35603;DHT22;21725;50.836;4.368;2024-02-23T19:11:56;9.00;99.90
35603;DHT22;21725;50.836;4.368;2024-02-23T19:14:57;9.20;99.90
35603;DHT22;21725;50.836;4.368;2024-02-23T19:17:58;9.30;99.90